sensor_id;sensor_type;location;lat;lon;timestamp;pressure;altitude;pressure_sealevel;temperature;humidity
54936;BME280;40838;50.676;7.838;2023-02-18T00:00:20;98992.59;;;7.64;100.00
54936;BME280;40838;50.676;7.838;2023-02-18T00:02:49;98988.06;;;7.31;100.00
54936;BME280;40838;50.676;7.838;2023-02-18T00:05:17;98987.69;;;7.56;100.00
54936;BME280;40838;50.676;7.838;2023-02-18T00:07:46;98989.78;;;7.08;100.00
54936;BME280;40838;50.676;7.838;2023-02-18T00:10:16;99001.31;;;7.48;100.00
54936;BME280;40838;50.676;7.838;2023-02-18T00:12:43;99000.44;;;7.25;100.00
54936;BME280;40838;50.676;7.838;2023-02-18T00:15:10;99005.31;;;7.33;100.00
54936;BME280;40838;50.676;7.838;2023-02-18T00:17:37;99003.34;;;7.41;100.00
54936;BME280;40838;50.676;7.838;2023-02-18T00:20:06;99004.38;;;7.11;100.00
54936;BME280;40838;50.676;7.838;2023-02-18T00:22:34;99009.81;;;7.04;100.00
54936;BME280;40838;50.676;7.838;2023-02-18T00:25:00;99005.66;;;7.37;100.00
54936;BME280;40838;50.676;7.838;2023-02-18T00:27:41;99007.91;;;7.28;100.00
54936;BME280;40838;50.676;7.838;2023-02-18T00:30:09;99005.88;;;7.07;100.00
54936;BME280;40838;50.676;7.838;2023-02-18T00:32:36;99002.03;;;7.26;100.00
54936;BME280;40838;50.676;7.838;2023-02-18T00:35:02;99004.47;;;7.16;100.00
54936;BME280;40838;50.676;7.838;2023-02-18T00:37:31;98994.22;;;7.20;100.00
54936;BME280;40838;50.676;7.838;2023-02-18T00:39:58;98985.03;;;7.10;100.00
54936;BME280;40838;50.676;7.838;2023-02-18T00:42:24;98988.66;;;7.21;100.00
54936;BME280;40838;50.676;7.838;2023-02-18T00:44:52;98983.19;;;7.11;100.00
54936;BME280;40838;50.676;7.838;2023-02-18T00:47:20;98985.22;;;7.21;100.00
54936;BME280;40838;50.676;7.838;2023-02-18T00:49:47;98983.66;;;7.08;100.00
54936;BME280;40838;50.676;7.838;2023-02-18T00:52:14;98980.03;;;7.26;100.00
54936;BME280;40838;50.676;7.838;2023-02-18T00:54:42;98973.47;;;7.28;100.00
54936;BME280;40838;50.676;7.838;2023-02-18T00:57:09;98978.66;;;6.94;100.00
54936;BME280;40838;50.676;7.838;2023-02-18T00:59:37;98972.97;;;7.31;100.00
54936;BME280;40838;50.676;7.838;2023-02-18T01:02:04;98980.13;;;7.31;100.00
54936;BME280;40838;50.676;7.838;2023-02-18T01:04:32;98992.19;;;6.81;100.00
54936;BME280;40838;50.676;7.838;2023-02-18T01:06:58;98974.81;;;7.02;100.00
54936;BME280;40838;50.676;7.838;2023-02-18T01:09:25;98970.81;;;7.28;100.00
54936;BME280;40838;50.676;7.838;2023-02-18T01:11:55;98959.25;;;7.34;100.00
54936;BME280;40838;50.676;7.838;2023-02-18T01:14:22;98959.16;;;7.29;100.00
54936;BME280;40838;50.676;7.838;2023-02-18T01:16:49;98959.47;;;7.33;100.00
54936;BME280;40838;50.676;7.838;2023-02-18T01:19:15;98955.91;;;7.10;100.00
54936;BME280;40838;50.676;7.838;2023-02-18T01:21:55;98940.13;;;7.32;100.00
54936;BME280;40838;50.676;7.838;2023-02-18T01:24:22;98957.66;;;7.05;100.00
54936;BME280;40838;50.676;7.838;2023-02-18T01:26:48;98953.19;;;7.22;100.00
54936;BME280;40838;50.676;7.838;2023-02-18T01:29:17;98946.16;;;7.16;100.00
54936;BME280;40838;50.676;7.838;2023-02-18T01:31:43;98951.88;;;7.08;100.00
54936;BME280;40838;50.676;7.838;2023-02-18T01:34:10;98946.03;;;6.77;100.00
54936;BME280;40838;50.676;7.838;2023-02-18T01:36:37;98949.88;;;7.15;100.00
54936;BME280;40838;50.676;7.838;2023-02-18T01:39:04;98938.06;;;7.06;100.00
54936;BME280;40838;50.676;7.838;2023-02-18T01:41:32;98941.28;;;7.08;100.00
54936;BME280;40838;50.676;7.838;2023-02-18T01:44:13;98946.47;;;7.03;100.00
54936;BME280;40838;50.676;7.838;2023-02-18T01:46:42;98933.88;;;6.93;100.00
54936;BME280;40838;50.676;7.838;2023-02-18T01:49:16;98919.63;;;7.28;100.00
54936;BME280;40838;50.676;7.838;2023-02-18T01:51:49;98931.22;;;7.10;100.00
54936;BME280;40838;50.676;7.838;2023-02-18T01:54:21;98926.34;;;7.02;100.00
54936;BME280;40838;50.676;7.838;2023-02-18T01:56:54;98924.25;;;7.04;100.00
54936;BME280;40838;50.676;7.838;2023-02-18T01:59:26;98930.34;;;6.87;100.00
54936;BME280;40838;50.676;7.838;2023-02-18T02:01:55;98925.88;;;7.05;100.00
54936;BME280;40838;50.676;7.838;2023-02-18T02:04:22;98921.19;;;7.12;100.00
54936;BME280;40838;50.676;7.838;2023-02-18T02:06:49;98927.66;;;7.33;100.00
54936;BME280;40838;50.676;7.838;2023-02-18T02:09:18;98921.09;;;7.07;100.00
54936;BME280;40838;50.676;7.838;2023-02-18T02:11:59;98917.06;;;7.33;100.00
54936;BME280;40838;50.676;7.838;2023-02-18T02:14:41;98919.22;;;7.53;100.00
54936;BME280;40838;50.676;7.838;2023-02-18T02:17:28;98907.69;;;7.25;100.00
54936;BME280;40838;50.676;7.838;2023-02-18T02:24:02;98904.59;;;7.16;100.00
54936;BME280;40838;50.676;7.838;2023-02-18T02:35:40;98892.94;;;7.18;100.00
54936;BME280;40838;50.676;7.838;2023-02-18T02:38:17;98895.97;;;6.76;100.00
54936;BME280;40838;50.676;7.838;2023-02-18T02:40:45;98890.69;;;7.09;100.00
54936;BME280;40838;50.676;7.838;2023-02-18T02:43:20;98891.03;;;7.47;100.00
54936;BME280;40838;50.676;7.838;2023-02-18T02:45:54;98885.75;;;7.86;100.00
54936;BME280;40838;50.676;7.838;2023-02-18T02:48:30;98883.53;;;7.99;100.00
54936;BME280;40838;50.676;7.838;2023-02-18T02:51:04;98884.06;;;7.41;100.00
54936;BME280;40838;50.676;7.838;2023-02-18T02:53:34;98885.72;;;7.64;100.00
54936;BME280;40838;50.676;7.838;2023-02-18T02:56:01;98891.19;;;7.96;100.00
54936;BME280;40838;50.676;7.838;2023-02-18T02:58:29;98879.63;;;7.63;100.00
54936;BME280;40838;50.676;7.838;2023-02-18T03:01:08;98875.88;;;7.81;100.00
54936;BME280;40838;50.676;7.838;2023-02-18T03:03:58;98876.69;;;7.81;100.00
54936;BME280;40838;50.676;7.838;2023-02-18T03:06:43;98874.03;;;7.43;100.00
54936;BME280;40838;50.676;7.838;2023-02-18T03:09:18;98874.38;;;7.68;100.00
54936;BME280;40838;50.676;7.838;2023-02-18T03:11:55;98861.38;;;7.89;100.00
54936;BME280;40838;50.676;7.838;2023-02-18T03:14:26;98858.84;;;7.77;100.00
54936;BME280;40838;50.676;7.838;2023-02-18T03:16:59;98865.63;;;7.51;100.00
54936;BME280;40838;50.676;7.838;2023-02-18T03:19:31;98864.03;;;7.89;100.00
54936;BME280;40838;50.676;7.838;2023-02-18T03:22:05;98850.78;;;7.50;100.00
54936;BME280;40838;50.676;7.838;2023-02-18T03:24:37;98853.56;;;7.99;100.00
54936;BME280;40838;50.676;7.838;2023-02-18T03:27:08;98840.25;;;8.21;100.00
54936;BME280;40838;50.676;7.838;2023-02-18T03:29:39;98833.59;;;8.18;100.00
54936;BME280;40838;50.676;7.838;2023-02-18T03:32:09;98831.22;;;8.44;100.00
54936;BME280;40838;50.676;7.838;2023-02-18T03:34:41;98823.75;;;8.41;100.00
54936;BME280;40838;50.676;7.838;2023-02-18T03:37:12;98820.88;;;8.69;100.00
54936;BME280;40838;50.676;7.838;2023-02-18T03:39:44;98821.88;;;8.14;100.00
54936;BME280;40838;50.676;7.838;2023-02-18T03:42:14;98813.41;;;8.66;100.00
54936;BME280;40838;50.676;7.838;2023-02-18T03:44:41;98817.28;;;8.04;100.00
54936;BME280;40838;50.676;7.838;2023-02-18T03:47:08;98810.25;;;8.69;100.00
54936;BME280;40838;50.676;7.838;2023-02-18T03:49:34;98800.97;;;8.18;100.00
54936;BME280;40838;50.676;7.838;2023-02-18T03:52:01;98802.88;;;8.22;100.00
54936;BME280;40838;50.676;7.838;2023-02-18T03:54:30;98804.00;;;8.04;100.00
54936;BME280;40838;50.676;7.838;2023-02-18T03:56:57;98800.97;;;8.18;100.00
54936;BME280;40838;50.676;7.838;2023-02-18T03:59:23;98795.13;;;8.16;100.00
54936;BME280;40838;50.676;7.838;2023-02-18T04:01:50;98806.47;;;8.60;100.00
54936;BME280;40838;50.676;7.838;2023-02-18T04:04:17;98806.63;;;8.54;100.00
54936;BME280;40838;50.676;7.838;2023-02-18T04:06:44;98803.53;;;8.35;100.00
54936;BME280;40838;50.676;7.838;2023-02-18T04:09:11;98809.47;;;8.47;100.00
54936;BME280;40838;50.676;7.838;2023-02-18T04:11:40;98814.53;;;8.48;100.00
54936;BME280;40838;50.676;7.838;2023-02-18T04:14:07;98810.75;;;8.39;100.00
54936;BME280;40838;50.676;7.838;2023-02-18T04:16:36;98808.84;;;8.13;100.00
54936;BME280;40838;50.676;7.838;2023-02-18T04:19:03;98816.34;;;7.94;100.00
54936;BME280;40838;50.676;7.838;2023-02-18T04:21:29;98802.72;;;8.07;100.00
54936;BME280;40838;50.676;7.838;2023-02-18T04:23:56;98802.94;;;8.27;100.00
54936;BME280;40838;50.676;7.838;2023-02-18T04:26:30;98801.09;;;8.55;100.00
54936;BME280;40838;50.676;7.838;2023-02-18T04:28:58;98797.31;;;8.24;100.00
54936;BME280;40838;50.676;7.838;2023-02-18T04:31:25;98794.13;;;8.22;100.00
54936;BME280;40838;50.676;7.838;2023-02-18T04:33:51;98800.00;;;8.29;100.00
54936;BME280;40838;50.676;7.838;2023-02-18T04:36:18;98789.25;;;8.14;100.00
54936;BME280;40838;50.676;7.838;2023-02-18T04:38:45;98793.56;;;8.20;100.00
54936;BME280;40838;50.676;7.838;2023-02-18T04:41:12;98787.16;;;8.43;100.00
54936;BME280;40838;50.676;7.838;2023-02-18T04:43:39;98795.50;;;8.29;100.00
54936;BME280;40838;50.676;7.838;2023-02-18T04:46:07;98791.84;;;8.09;100.00
54936;BME280;40838;50.676;7.838;2023-02-18T04:48:34;98780.22;;;8.42;100.00
54936;BME280;40838;50.676;7.838;2023-02-18T04:51:00;98789.09;;;8.25;100.00
54936;BME280;40838;50.676;7.838;2023-02-18T04:53:27;98771.84;;;8.01;100.00
54936;BME280;40838;50.676;7.838;2023-02-18T04:55:54;98766.31;;;8.02;100.00
54936;BME280;40838;50.676;7.838;2023-02-18T04:58:21;98776.03;;;7.70;100.00
54936;BME280;40838;50.676;7.838;2023-02-18T05:00:48;98769.47;;;7.77;100.00
54936;BME280;40838;50.676;7.838;2023-02-18T05:03:16;98764.72;;;8.01;100.00
54936;BME280;40838;50.676;7.838;2023-02-18T05:05:43;98765.59;;;7.41;100.00
54936;BME280;40838;50.676;7.838;2023-02-18T05:08:10;98763.81;;;7.47;100.00
54936;BME280;40838;50.676;7.838;2023-02-18T05:10:38;98761.91;;;8.13;100.00
54936;BME280;40838;50.676;7.838;2023-02-18T05:13:05;98759.44;;;8.06;100.00
54936;BME280;40838;50.676;7.838;2023-02-18T05:15:32;98764.00;;;8.11;100.00
54936;BME280;40838;50.676;7.838;2023-02-18T05:17:59;98754.25;;;7.90;100.00
54936;BME280;40838;50.676;7.838;2023-02-18T05:20:27;98751.44;;;8.56;100.00
54936;BME280;40838;50.676;7.838;2023-02-18T05:22:54;98753.31;;;7.79;100.00
54936;BME280;40838;50.676;7.838;2023-02-18T05:25:21;98746.59;;;7.93;100.00
54936;BME280;40838;50.676;7.838;2023-02-18T05:27:48;98747.44;;;7.77;100.00
54936;BME280;40838;50.676;7.838;2023-02-18T05:30:15;98748.31;;;7.38;100.00
54936;BME280;40838;50.676;7.838;2023-02-18T05:32:43;98739.25;;;7.56;100.00
54936;BME280;40838;50.676;7.838;2023-02-18T05:35:10;98744.56;;;7.34;100.00
54936;BME280;40838;50.676;7.838;2023-02-18T05:37:39;98738.00;;;7.20;100.00
54936;BME280;40838;50.676;7.838;2023-02-18T05:40:10;98735.59;;;7.57;100.00
54936;BME280;40838;50.676;7.838;2023-02-18T05:42:37;98737.25;;;7.91;100.00
54936;BME280;40838;50.676;7.838;2023-02-18T05:45:04;98731.63;;;7.21;100.00
54936;BME280;40838;50.676;7.838;2023-02-18T05:47:30;98729.78;;;7.22;100.00
54936;BME280;40838;50.676;7.838;2023-02-18T05:49:57;98712.19;;;7.76;100.00
54936;BME280;40838;50.676;7.838;2023-02-18T05:52:24;98721.50;;;7.57;100.00
54936;BME280;40838;50.676;7.838;2023-02-18T05:54:52;98715.03;;;7.97;100.00
54936;BME280;40838;50.676;7.838;2023-02-18T05:57:19;98715.53;;;7.94;100.00
54936;BME280;40838;50.676;7.838;2023-02-18T05:59:53;98712.22;;;8.36;100.00
54936;BME280;40838;50.676;7.838;2023-02-18T06:02:20;98708.34;;;8.16;100.00
54936;BME280;40838;50.676;7.838;2023-02-18T06:04:47;98711.19;;;7.82;100.00
54936;BME280;40838;50.676;7.838;2023-02-18T06:07:15;98705.34;;;7.58;100.00
54936;BME280;40838;50.676;7.838;2023-02-18T06:09:41;98706.41;;;7.57;100.00
54936;BME280;40838;50.676;7.838;2023-02-18T06:12:10;98709.50;;;7.49;100.00
54936;BME280;40838;50.676;7.838;2023-02-18T06:14:36;98702.06;;;7.73;100.00
54936;BME280;40838;50.676;7.838;2023-02-18T06:17:06;98700.47;;;7.50;100.00
54936;BME280;40838;50.676;7.838;2023-02-18T06:19:33;98709.03;;;7.13;100.00
54936;BME280;40838;50.676;7.838;2023-02-18T06:22:00;98701.97;;;7.63;100.00
54936;BME280;40838;50.676;7.838;2023-02-18T06:24:27;98698.22;;;7.86;100.00
54936;BME280;40838;50.676;7.838;2023-02-18T06:26:53;98705.94;;;7.88;100.00
54936;BME280;40838;50.676;7.838;2023-02-18T06:29:22;98702.47;;;7.38;100.00
54936;BME280;40838;50.676;7.838;2023-02-18T06:31:49;98706.66;;;7.34;100.00
54936;BME280;40838;50.676;7.838;2023-02-18T06:34:16;98693.78;;;7.43;100.00
54936;BME280;40838;50.676;7.838;2023-02-18T06:36:43;98683.44;;;7.24;100.00
54936;BME280;40838;50.676;7.838;2023-02-18T06:39:09;98686.88;;;7.64;100.00
54936;BME280;40838;50.676;7.838;2023-02-18T06:41:36;98678.34;;;7.18;100.00
54936;BME280;40838;50.676;7.838;2023-02-18T06:44:03;98668.94;;;7.49;100.00
54936;BME280;40838;50.676;7.838;2023-02-18T06:46:32;98668.16;;;7.09;100.00
54936;BME280;40838;50.676;7.838;2023-02-18T06:48:59;98664.88;;;7.41;100.00
54936;BME280;40838;50.676;7.838;2023-02-18T06:51:25;98673.13;;;7.45;100.00
54936;BME280;40838;50.676;7.838;2023-02-18T06:53:52;98668.31;;;7.42;100.00
54936;BME280;40838;50.676;7.838;2023-02-18T06:56:21;98670.97;;;7.42;100.00
54936;BME280;40838;50.676;7.838;2023-02-18T06:58:48;98670.81;;;7.75;100.00
54936;BME280;40838;50.676;7.838;2023-02-18T07:01:14;98678.41;;;7.67;100.00
54936;BME280;40838;50.676;7.838;2023-02-18T07:03:45;98667.50;;;7.41;100.00
54936;BME280;40838;50.676;7.838;2023-02-18T07:06:13;98676.97;;;7.15;100.00
54936;BME280;40838;50.676;7.838;2023-02-18T07:08:40;98670.28;;;7.29;100.00
54936;BME280;40838;50.676;7.838;2023-02-18T07:11:08;98667.88;;;7.28;100.00
54936;BME280;40838;50.676;7.838;2023-02-18T07:13:35;98668.50;;;7.84;100.00
54936;BME280;40838;50.676;7.838;2023-02-18T07:16:02;98672.19;;;7.83;100.00
54936;BME280;40838;50.676;7.838;2023-02-18T07:18:39;98661.28;;;7.79;100.00
54936;BME280;40838;50.676;7.838;2023-02-18T07:21:09;98662.44;;;7.39;100.00
54936;BME280;40838;50.676;7.838;2023-02-18T07:23:36;98675.75;;;7.23;100.00
54936;BME280;40838;50.676;7.838;2023-02-18T07:26:05;98658.84;;;7.73;100.00
54936;BME280;40838;50.676;7.838;2023-02-18T07:28:33;98649.53;;;7.70;100.00
54936;BME280;40838;50.676;7.838;2023-02-18T07:30:59;98664.81;;;7.19;100.00
54936;BME280;40838;50.676;7.838;2023-02-18T07:33:29;98659.84;;;7.67;100.00
54936;BME280;40838;50.676;7.838;2023-02-18T07:35:57;98666.72;;;7.95;100.00
54936;BME280;40838;50.676;7.838;2023-02-18T07:38:26;98665.34;;;7.87;100.00
54936;BME280;40838;50.676;7.838;2023-02-18T07:40:55;98680.75;;;7.63;100.00
54936;BME280;40838;50.676;7.838;2023-02-18T07:43:23;98686.44;;;7.72;100.00
54936;BME280;40838;50.676;7.838;2023-02-18T07:45:50;98686.00;;;8.12;100.00
54936;BME280;40838;50.676;7.838;2023-02-18T07:48:16;98679.44;;;7.66;100.00
54936;BME280;40838;50.676;7.838;2023-02-18T07:50:44;98686.22;;;7.78;100.00
54936;BME280;40838;50.676;7.838;2023-02-18T07:53:15;98690.00;;;7.38;100.00
54936;BME280;40838;50.676;7.838;2023-02-18T07:55:43;98700.34;;;7.62;100.00
54936;BME280;40838;50.676;7.838;2023-02-18T07:58:19;98709.97;;;8.22;100.00
54936;BME280;40838;50.676;7.838;2023-02-18T08:00:46;98713.91;;;7.66;100.00
54936;BME280;40838;50.676;7.838;2023-02-18T08:03:16;98705.16;;;7.92;100.00
54936;BME280;40838;50.676;7.838;2023-02-18T08:05:47;98704.72;;;8.00;100.00
54936;BME280;40838;50.676;7.838;2023-02-18T08:08:16;98703.53;;;7.86;100.00
54936;BME280;40838;50.676;7.838;2023-02-18T08:10:49;98705.13;;;8.14;100.00
54936;BME280;40838;50.676;7.838;2023-02-18T08:13:17;98701.47;;;7.93;100.00
54936;BME280;40838;50.676;7.838;2023-02-18T08:15:43;98694.50;;;8.14;100.00
54936;BME280;40838;50.676;7.838;2023-02-18T08:18:15;98698.97;;;8.09;100.00
54936;BME280;40838;50.676;7.838;2023-02-18T08:20:42;98708.03;;;7.86;100.00
54936;BME280;40838;50.676;7.838;2023-02-18T08:23:09;98696.69;;;7.68;100.00
54936;BME280;40838;50.676;7.838;2023-02-18T08:25:36;98698.25;;;8.18;100.00
54936;BME280;40838;50.676;7.838;2023-02-18T08:28:04;98701.66;;;7.37;100.00
54936;BME280;40838;50.676;7.838;2023-02-18T08:30:31;98700.84;;;7.81;100.00
54936;BME280;40838;50.676;7.838;2023-02-18T08:32:58;98699.41;;;7.73;100.00
54936;BME280;40838;50.676;7.838;2023-02-18T08:35:25;98707.88;;;7.48;100.00
54936;BME280;40838;50.676;7.838;2023-02-18T08:37:51;98708.81;;;7.37;100.00
54936;BME280;40838;50.676;7.838;2023-02-18T08:40:18;98715.16;;;7.36;100.00
54936;BME280;40838;50.676;7.838;2023-02-18T08:42:48;98710.88;;;7.57;100.00
54936;BME280;40838;50.676;7.838;2023-02-18T08:45:16;98717.25;;;7.56;100.00
54936;BME280;40838;50.676;7.838;2023-02-18T08:47:43;98723.19;;;7.41;100.00
54936;BME280;40838;50.676;7.838;2023-02-18T08:50:10;98713.38;;;7.42;100.00
54936;BME280;40838;50.676;7.838;2023-02-18T08:52:37;98719.16;;;7.38;100.00
54936;BME280;40838;50.676;7.838;2023-02-18T08:55:06;98714.03;;;7.54;100.00
54936;BME280;40838;50.676;7.838;2023-02-18T08:57:33;98719.34;;;8.03;100.00
54936;BME280;40838;50.676;7.838;2023-02-18T09:00:00;98728.75;;;7.89;100.00
54936;BME280;40838;50.676;7.838;2023-02-18T09:02:30;98727.28;;;7.54;100.00
54936;BME280;40838;50.676;7.838;2023-02-18T09:04:57;98732.97;;;7.84;100.00
54936;BME280;40838;50.676;7.838;2023-02-18T09:07:24;98743.94;;;7.71;100.00
54936;BME280;40838;50.676;7.838;2023-02-18T09:09:51;98739.88;;;7.42;100.00
54936;BME280;40838;50.676;7.838;2023-02-18T09:12:19;98737.97;;;7.59;100.00
54936;BME280;40838;50.676;7.838;2023-02-18T09:14:46;98756.72;;;6.97;100.00
54936;BME280;40838;50.676;7.838;2023-02-18T09:17:13;98758.72;;;6.39;100.00
54936;BME280;40838;50.676;7.838;2023-02-18T09:19:41;98763.47;;;6.54;100.00
54936;BME280;40838;50.676;7.838;2023-02-18T09:22:11;98758.59;;;6.96;100.00
54936;BME280;40838;50.676;7.838;2023-02-18T09:24:39;98751.81;;;7.05;100.00
54936;BME280;40838;50.676;7.838;2023-02-18T09:27:06;98757.94;;;7.45;100.00
54936;BME280;40838;50.676;7.838;2023-02-18T09:29:36;98756.47;;;6.98;100.00
54936;BME280;40838;50.676;7.838;2023-02-18T09:32:06;98750.91;;;7.33;100.00
54936;BME280;40838;50.676;7.838;2023-02-18T09:34:35;98749.13;;;7.61;100.00
54936;BME280;40838;50.676;7.838;2023-02-18T09:37:03;98748.59;;;7.20;100.00
54936;BME280;40838;50.676;7.838;2023-02-18T09:39:30;98756.16;;;6.94;100.00
54936;BME280;40838;50.676;7.838;2023-02-18T09:41:59;98752.47;;;6.96;100.00
54936;BME280;40838;50.676;7.838;2023-02-18T09:44:28;98754.31;;;6.95;100.00
54936;BME280;40838;50.676;7.838;2023-02-18T09:47:00;98750.41;;;6.64;100.00
54936;BME280;40838;50.676;7.838;2023-02-18T09:49:30;98762.50;;;6.43;100.00
54936;BME280;40838;50.676;7.838;2023-02-18T09:52:02;98752.94;;;6.42;100.00
54936;BME280;40838;50.676;7.838;2023-02-18T09:54:31;98756.53;;;6.19;100.00
54936;BME280;40838;50.676;7.838;2023-02-18T09:56:58;98755.75;;;6.35;100.00
54936;BME280;40838;50.676;7.838;2023-02-18T09:59:26;98762.88;;;6.18;100.00
54936;BME280;40838;50.676;7.838;2023-02-18T10:01:53;98771.53;;;6.30;100.00
54936;BME280;40838;50.676;7.838;2023-02-18T10:04:24;98772.97;;;6.21;100.00
54936;BME280;40838;50.676;7.838;2023-02-18T10:06:55;98762.66;;;6.36;100.00
54936;BME280;40838;50.676;7.838;2023-02-18T10:09:27;98762.09;;;6.51;100.00
54936;BME280;40838;50.676;7.838;2023-02-18T10:12:00;98760.78;;;7.04;100.00
54936;BME280;40838;50.676;7.838;2023-02-18T10:14:29;98754.66;;;6.65;100.00
54936;BME280;40838;50.676;7.838;2023-02-18T10:16:57;98741.56;;;6.75;100.00
54936;BME280;40838;50.676;7.838;2023-02-18T10:19:28;98734.84;;;6.84;100.00
54936;BME280;40838;50.676;7.838;2023-02-18T10:21:59;98727.00;;;7.11;100.00
54936;BME280;40838;50.676;7.838;2023-02-18T10:24:30;98722.38;;;7.41;100.00
54936;BME280;40838;50.676;7.838;2023-02-18T10:27:00;98717.44;;;7.27;100.00
54936;BME280;40838;50.676;7.838;2023-02-18T10:29:31;98722.56;;;6.78;100.00
54936;BME280;40838;50.676;7.838;2023-02-18T10:32:05;98716.03;;;7.03;100.00
54936;BME280;40838;50.676;7.838;2023-02-18T10:34:39;98723.28;;;6.90;100.00
54936;BME280;40838;50.676;7.838;2023-02-18T10:37:20;98715.81;;;6.70;100.00
54936;BME280;40838;50.676;7.838;2023-02-18T10:40:00;98721.03;;;6.82;100.00
54936;BME280;40838;50.676;7.838;2023-02-18T10:42:39;98722.50;;;6.73;100.00
54936;BME280;40838;50.676;7.838;2023-02-18T10:45:19;98711.91;;;7.29;100.00
54936;BME280;40838;50.676;7.838;2023-02-18T10:47:54;98701.44;;;6.83;100.00
54936;BME280;40838;50.676;7.838;2023-02-18T10:50:29;98698.19;;;6.98;100.00
54936;BME280;40838;50.676;7.838;2023-02-18T10:53:00;98698.25;;;7.20;100.00
54936;BME280;40838;50.676;7.838;2023-02-18T10:55:36;98691.09;;;7.65;100.00
54936;BME280;40838;50.676;7.838;2023-02-18T10:58:23;98683.38;;;7.19;100.00
54936;BME280;40838;50.676;7.838;2023-02-18T11:00:51;98690.28;;;7.20;100.00
54936;BME280;40838;50.676;7.838;2023-02-18T11:03:19;98679.66;;;7.37;100.00
54936;BME280;40838;50.676;7.838;2023-02-18T11:05:49;98675.59;;;7.12;100.00
54936;BME280;40838;50.676;7.838;2023-02-18T11:08:19;98681.34;;;7.43;100.00
54936;BME280;40838;50.676;7.838;2023-02-18T11:10:48;98698.19;;;6.98;100.00
54936;BME280;40838;50.676;7.838;2023-02-18T11:13:22;98688.75;;;7.24;100.00
54936;BME280;40838;50.676;7.838;2023-02-18T11:15:58;98683.53;;;6.35;100.00
54936;BME280;40838;50.676;7.838;2023-02-18T11:18:37;98683.91;;;6.27;100.00
54936;BME280;40838;50.676;7.838;2023-02-18T11:21:19;98687.19;;;6.51;100.00
54936;BME280;40838;50.676;7.838;2023-02-18T11:23:48;98694.63;;;6.87;100.00
54936;BME280;40838;50.676;7.838;2023-02-18T11:26:20;98692.66;;;6.61;100.00
54936;BME280;40838;50.676;7.838;2023-02-18T11:28:51;98692.97;;;6.31;100.00
54936;BME280;40838;50.676;7.838;2023-02-18T11:31:23;98684.06;;;6.70;100.00
54936;BME280;40838;50.676;7.838;2023-02-18T11:33:53;98696.94;;;6.84;100.00
54936;BME280;40838;50.676;7.838;2023-02-18T11:36:23;98691.41;;;6.85;100.00
54936;BME280;40838;50.676;7.838;2023-02-18T11:38:54;98693.59;;;6.55;100.00
54936;BME280;40838;50.676;7.838;2023-02-18T11:41:29;98701.72;;;5.86;100.00
54936;BME280;40838;50.676;7.838;2023-02-18T11:44:02;98692.13;;;6.13;100.00
54936;BME280;40838;50.676;7.838;2023-02-18T11:46:30;98700.16;;;6.69;100.00
54936;BME280;40838;50.676;7.838;2023-02-18T11:49:10;98704.94;;;7.06;100.00
54936;BME280;40838;50.676;7.838;2023-02-18T11:51:39;98702.09;;;7.12;100.00
54936;BME280;40838;50.676;7.838;2023-02-18T11:54:23;98701.81;;;7.09;100.00
54936;BME280;40838;50.676;7.838;2023-02-18T11:56:54;98681.63;;;6.69;100.00
54936;BME280;40838;50.676;7.838;2023-02-18T11:59:23;98681.88;;;6.84;100.00
54936;BME280;40838;50.676;7.838;2023-02-18T12:01:55;98692.25;;;6.35;100.00
54936;BME280;40838;50.676;7.838;2023-02-18T12:04:26;98695.00;;;6.96;100.00
54936;BME280;40838;50.676;7.838;2023-02-18T12:07:04;98691.28;;;6.58;100.00
54936;BME280;40838;50.676;7.838;2023-02-18T12:09:35;98691.78;;;6.55;100.00
54936;BME280;40838;50.676;7.838;2023-02-18T12:12:07;98687.91;;;6.63;100.00
54936;BME280;40838;50.676;7.838;2023-02-18T12:14:38;98690.22;;;6.76;100.00
54936;BME280;40838;50.676;7.838;2023-02-18T12:17:25;98685.28;;;7.02;100.00
54936;BME280;40838;50.676;7.838;2023-02-18T12:20:06;98684.81;;;6.49;100.00
54936;BME280;40838;50.676;7.838;2023-02-18T12:22:42;98682.13;;;6.15;100.00
54936;BME280;40838;50.676;7.838;2023-02-18T12:25:22;98696.47;;;6.19;100.00
54936;BME280;40838;50.676;7.838;2023-02-18T12:28:00;98696.97;;;5.59;100.00
54936;BME280;40838;50.676;7.838;2023-02-18T12:30:43;98693.59;;;5.64;100.00
54936;BME280;40838;50.676;7.838;2023-02-18T12:33:20;98679.88;;;5.50;100.00
54936;BME280;40838;50.676;7.838;2023-02-18T12:35:59;98676.63;;;5.19;100.00
54936;BME280;40838;50.676;7.838;2023-02-18T12:38:51;98670.66;;;6.10;100.00
54936;BME280;40838;50.676;7.838;2023-02-18T12:41:40;98675.91;;;5.35;100.00
54936;BME280;40838;50.676;7.838;2023-02-18T12:44:24;98673.91;;;5.43;100.00
54936;BME280;40838;50.676;7.838;2023-02-18T12:47:23;98676.19;;;5.51;100.00
54936;BME280;40838;50.676;7.838;2023-02-18T12:50:13;98674.97;;;5.42;100.00
54936;BME280;40838;50.676;7.838;2023-02-18T12:52:55;98671.59;;;5.87;100.00
54936;BME280;40838;50.676;7.838;2023-02-18T12:55:39;98675.72;;;5.83;100.00
54936;BME280;40838;50.676;7.838;2023-02-18T12:58:21;98677.34;;;5.15;100.00
54936;BME280;40838;50.676;7.838;2023-02-18T13:01:13;98678.97;;;4.69;100.00
54936;BME280;40838;50.676;7.838;2023-02-18T13:04:07;98682.50;;;5.09;100.00
54936;BME280;40838;50.676;7.838;2023-02-18T13:09:32;98679.69;;;5.68;100.00
54936;BME280;40838;50.676;7.838;2023-02-18T13:12:06;98685.03;;;5.56;100.00
54936;BME280;40838;50.676;7.838;2023-02-18T13:14:38;98684.91;;;5.51;100.00
54936;BME280;40838;50.676;7.838;2023-02-18T13:17:10;98688.94;;;5.54;100.00
54936;BME280;40838;50.676;7.838;2023-02-18T13:19:45;98689.06;;;5.88;100.00
54936;BME280;40838;50.676;7.838;2023-02-18T13:22:14;98689.25;;;5.57;100.00
54936;BME280;40838;50.676;7.838;2023-02-18T13:24:43;98685.06;;;5.45;100.00
54936;BME280;40838;50.676;7.838;2023-02-18T13:27:16;98681.16;;;5.76;100.00
54936;BME280;40838;50.676;7.838;2023-02-18T13:29:48;98686.88;;;5.85;100.00
54936;BME280;40838;50.676;7.838;2023-02-18T13:32:23;98680.13;;;5.77;100.00